createdAt,value
2023-02-16T00:01:54.536Z,0.90
2023-02-16T00:04:22.073Z,0.90
2023-02-16T00:06:49.608Z,0.80
2023-02-16T00:09:17.961Z,0.80
2023-02-16T00:12:03.587Z,0.80
2023-02-16T00:14:31.141Z,0.80
2023-02-16T00:16:58.694Z,0.70
2023-02-16T00:19:26.211Z,0.70
2023-02-16T00:21:53.807Z,0.70
2023-02-16T00:24:22.101Z,0.60
2023-02-16T00:26:49.632Z,0.60
2023-02-16T00:29:20.824Z,0.60
2023-02-16T00:31:48.471Z,0.60
2023-02-16T00:34:15.894Z,0.60
2023-02-16T00:36:44.245Z,0.50
2023-02-16T00:39:11.792Z,0.50
2023-02-16T00:41:51.382Z,0.50
2023-02-16T00:44:37.724Z,0.70
2023-02-16T00:47:17.335Z,0.70
2023-02-16T00:49:44.866Z,1.00
2023-02-16T00:52:31.531Z,0.80
2023-02-16T00:54:59.081Z,0.80
2023-02-16T00:57:26.625Z,0.70
2023-02-16T00:59:59.904Z,0.60
2023-02-16T01:02:27.445Z,0.60
2023-02-16T01:04:55.729Z,0.50
2023-02-16T01:07:42.597Z,0.40
2023-02-16T01:10:28.189Z,0.40
2023-02-16T01:12:55.757Z,0.40
2023-02-16T01:15:23.302Z,0.30
2023-02-16T01:17:50.831Z,0.30
2023-02-16T01:20:18.397Z,0.20
2023-02-16T01:22:45.940Z,0.20
2023-02-16T01:25:13.497Z,0.20
2023-02-16T01:27:41.385Z,0.50
2023-02-16T01:30:08.987Z,0.50
2023-02-16T01:32:36.515Z,0.50
2023-02-16T01:35:04.129Z,0.40
2023-02-16T01:37:31.624Z,0.30
2023-02-16T01:39:59.128Z,0.30
2023-02-16T01:42:41.896Z,0.30
2023-02-16T01:45:12.642Z,0.20
2023-02-16T01:47:42.791Z,0.20
2023-02-16T01:50:16.317Z,0.10
2023-02-16T01:52:44.894Z,0.10
2023-02-16T01:55:16.396Z,0.30
2023-02-16T01:57:46.398Z,0.30
2023-02-16T02:00:16.935Z,0.30
2023-02-16T02:02:50.366Z,0.30
2023-02-16T02:05:35.577Z,0.20
2023-02-16T02:08:15.317Z,0.20
2023-02-16T02:10:48.660Z,0.10
2023-02-16T02:13:43.676Z,0.20
2023-02-16T02:16:11.647Z,0.20
2023-02-16T02:18:39.123Z,0.20
2023-02-16T02:21:56.232Z,0.20
2023-02-16T02:24:48.497Z,0.20
2023-02-16T02:27:24.769Z,0.10
2023-02-16T02:30:19.628Z,0.10
2023-02-16T02:32:55.596Z,0.10
2023-02-16T02:35:26.490Z,0.10
2023-02-16T02:38:18.422Z,0.10
2023-02-16T02:40:45.927Z,0.10
2023-02-16T02:43:21.953Z,0.00
2023-02-16T02:45:55.524Z,0.00
2023-02-16T02:48:23.044Z,0.00
2023-02-16T02:51:08.403Z,0.20
2023-02-16T02:53:38.913Z,0.20
2023-02-16T02:56:24.531Z,0.10
2023-02-16T02:59:10.113Z,0.10
2023-02-16T03:01:38.449Z,0.20
2023-02-16T03:04:05.979Z,0.20
2023-02-16T03:06:33.525Z,0.20
2023-02-16T03:09:01.090Z,0.10
2023-02-16T03:11:48.194Z,0.00
2023-02-16T03:14:19.842Z,0.00
2023-02-16T03:17:15.171Z,-0.20
2023-02-16T03:20:00.488Z,-0.20
2023-02-16T03:22:46.246Z,-0.20
2023-02-16T03:25:32.023Z,-0.20
2023-02-16T03:28:17.657Z,-0.30
2023-02-16T03:30:45.286Z,-0.30
2023-02-16T03:33:12.762Z,-0.40
2023-02-16T03:35:40.298Z,-0.40
2023-02-16T03:38:08.256Z,-0.40
2023-02-16T03:40:35.812Z,-0.50
2023-02-16T03:43:03.361Z,-0.40
2023-02-16T03:45:30.970Z,-0.50
2023-02-16T03:47:58.474Z,-0.40
2023-02-16T03:50:25.999Z,-0.40
2023-02-16T03:52:54.379Z,-0.40
2023-02-16T03:55:21.906Z,-0.40
2023-02-16T03:57:49.431Z,-0.40
2023-02-16T04:00:17.005Z,-0.20
2023-02-16T04:02:44.555Z,-0.10
2023-02-16T04:05:12.089Z,-0.20
2023-02-16T04:07:41.240Z,-0.20
2023-02-16T04:10:08.797Z,-0.20
2023-02-16T04:12:38.804Z,-0.30
2023-02-16T04:15:06.480Z,-0.30
2023-02-16T04:17:34.050Z,-0.30
2023-02-16T04:20:01.583Z,-0.30
2023-02-16T04:22:29.176Z,-0.10
2023-02-16T04:24:56.728Z,0.10
2023-02-16T04:27:24.276Z,0.00
2023-02-16T04:29:51.904Z,0.20
2023-02-16T04:32:19.369Z,0.40
2023-02-16T04:34:46.899Z,0.30
2023-02-16T04:37:15.235Z,0.00
2023-02-16T04:39:42.768Z,-0.10
2023-02-16T04:42:10.324Z,0.10
2023-02-16T04:44:37.956Z,0.30
2023-02-16T04:47:05.500Z,0.20
2023-02-16T04:49:33.817Z,-0.10
2023-02-16T04:52:01.422Z,-0.10
2023-02-16T04:54:28.950Z,-0.10
2023-02-16T04:56:56.486Z,-0.30
2023-02-16T04:59:24.130Z,-0.30
2023-02-16T05:01:51.674Z,-0.40
2023-02-16T05:04:19.209Z,-0.40
2023-02-16T05:06:46.772Z,-0.20
2023-02-16T05:09:14.307Z,0.00
2023-02-16T05:12:00.070Z,-0.10
2023-02-16T05:14:42.378Z,-0.20
2023-02-16T05:17:09.934Z,-0.10
2023-02-16T05:19:37.468Z,-0.20
2023-02-16T05:22:05.776Z,-0.50
2023-02-16T05:24:33.366Z,-0.50
2023-02-16T05:27:00.911Z,-0.60
2023-02-16T05:29:28.448Z,-0.70
2023-02-16T05:31:56.133Z,-0.80
2023-02-16T05:34:23.573Z,-0.90
2023-02-16T05:36:51.128Z,-0.90
2023-02-16T05:39:18.705Z,-1.00
2023-02-16T05:41:46.264Z,-1.00
2023-02-16T05:44:13.788Z,-1.00
2023-02-16T05:46:41.403Z,-1.10
2023-02-16T05:49:08.917Z,-1.10
2023-02-16T05:51:36.467Z,-1.10
2023-02-16T05:54:04.830Z,-1.10
2023-02-16T05:56:33.144Z,-1.10
2023-02-16T05:59:00.696Z,-1.10
2023-02-16T06:01:29.063Z,-1.10
2023-02-16T06:03:56.647Z,-1.10
2023-02-16T06:06:24.918Z,-1.10
2023-02-16T06:08:52.776Z,-1.10
2023-02-16T06:11:29.181Z,-1.10
2023-02-16T06:13:56.759Z,-1.00
2023-02-16T06:16:24.375Z,-1.00
2023-02-16T06:18:51.849Z,-0.80
2023-02-16T06:21:19.432Z,-0.80
2023-02-16T06:23:46.988Z,-0.80
2023-02-16T06:26:17.317Z,-0.90
2023-02-16T06:28:45.239Z,-0.70
2023-02-16T06:31:12.845Z,-0.40
2023-02-16T06:33:40.314Z,-0.20
2023-02-16T06:36:08.726Z,-0.40
2023-02-16T06:38:36.265Z,-0.40
2023-02-16T06:41:04.947Z,-0.60
2023-02-16T06:43:32.196Z,-0.60
2023-02-16T06:45:59.712Z,-0.60
2023-02-16T06:48:27.240Z,-0.70
2023-02-16T06:50:54.851Z,-0.70
2023-02-16T06:53:22.405Z,-0.70
2023-02-16T06:55:52.381Z,-0.70
2023-02-16T06:58:19.976Z,-0.50
2023-02-16T07:00:47.545Z,-0.50
2023-02-16T07:03:15.115Z,-0.50
2023-02-16T07:05:42.627Z,-0.50
2023-02-16T07:08:10.179Z,-0.50
2023-02-16T07:10:49.478Z,-0.50
2023-02-16T07:13:05.312Z,-0.50
2023-02-16T07:15:32.872Z,-0.30
2023-02-16T07:18:00.389Z,-0.30
2023-02-16T07:20:28.083Z,-0.30
2023-02-16T07:22:55.508Z,-0.40
2023-02-16T07:25:23.052Z,-0.40
2023-02-16T07:27:51.413Z,-0.40
2023-02-16T07:30:19.047Z,-0.40
2023-02-16T07:32:46.493Z,-0.20
2023-02-16T07:35:14.067Z,-0.10
2023-02-16T07:37:41.620Z,-0.10
2023-02-16T07:40:09.194Z,-0.10
2023-02-16T07:42:36.768Z,-0.20
2023-02-16T07:45:04.323Z,-0.20
2023-02-16T07:47:31.858Z,0.10
2023-02-16T07:49:59.429Z,0.10
2023-02-16T07:52:26.974Z,0.30
2023-02-16T07:54:54.521Z,0.40
2023-02-16T07:57:22.078Z,0.30
2023-02-16T07:59:49.606Z,0.30
2023-02-16T08:02:18.046Z,0.30
2023-02-16T08:04:45.759Z,0.30
2023-02-16T08:07:15.917Z,0.30
2023-02-16T08:09:43.448Z,0.60
2023-02-16T08:12:11.430Z,0.60
2023-02-16T08:14:39.001Z,0.80
2023-02-16T08:17:06.538Z,0.90
2023-02-16T08:19:34.847Z,0.80
2023-02-16T08:22:04.992Z,0.80
2023-02-16T08:24:32.533Z,0.80
2023-02-16T08:27:00.145Z,0.80
2023-02-16T08:29:27.671Z,1.00
2023-02-16T08:31:55.232Z,1.30
2023-02-16T08:34:23.053Z,1.30
2023-02-16T08:36:53.277Z,1.50
2023-02-16T08:39:20.803Z,1.50
2023-02-16T08:41:49.139Z,1.40
2023-02-16T08:44:16.744Z,1.40
2023-02-16T08:46:44.204Z,1.40
2023-02-16T08:49:11.787Z,1.40
2023-02-16T08:51:41.930Z,1.40
2023-02-16T08:54:09.475Z,1.40
2023-02-16T08:56:37.312Z,1.50
2023-02-16T08:59:04.874Z,1.50
2023-02-16T09:01:32.455Z,1.60
2023-02-16T09:04:00.914Z,1.70
2023-02-16T09:06:28.447Z,1.70
2023-02-16T09:08:56.760Z,1.80
2023-02-16T09:11:24.310Z,1.70
2023-02-16T09:13:51.850Z,1.80
2023-02-16T09:16:19.466Z,1.80
2023-02-16T09:18:46.984Z,1.90
2023-02-16T09:21:14.509Z,2.00
2023-02-16T09:23:44.415Z,2.10
2023-02-16T09:26:10.395Z,2.10
2023-02-16T09:28:37.929Z,2.20
2023-02-16T09:31:23.825Z,2.30
2023-02-16T09:33:51.256Z,2.40
2023-02-16T09:36:19.547Z,2.60
2023-02-16T09:38:47.131Z,2.60
2023-02-16T09:41:32.949Z,2.80
2023-02-16T09:44:00.543Z,2.90
2023-02-16T09:46:28.114Z,3.00
2023-02-16T09:48:56.391Z,3.20
2023-02-16T09:51:34.667Z,3.20
2023-02-16T09:54:00.430Z,3.30
2023-02-16T09:56:30.436Z,3.60
2023-02-16T09:59:22.037Z,3.70
2023-02-16T10:01:52.505Z,3.80
2023-02-16T10:04:46.134Z,3.80
2023-02-16T10:07:21.004Z,3.80
2023-02-16T10:09:49.384Z,3.90
2023-02-16T10:12:16.947Z,4.00
2023-02-16T10:14:49.997Z,4.00
2023-02-16T10:17:29.754Z,4.20
2023-02-16T10:22:49.152Z,4.20
2023-02-16T10:25:16.686Z,4.30
2023-02-16T10:27:45.007Z,4.50
2023-02-16T10:30:15.357Z,4.40
2023-02-16T10:32:55.201Z,4.60
2023-02-16T10:35:23.141Z,4.50
2023-02-16T10:38:05.996Z,4.60
2023-02-16T10:40:42.276Z,4.80
2023-02-16T10:43:37.027Z,4.90
2023-02-16T10:46:04.643Z,4.90
2023-02-16T10:48:32.167Z,4.90
2023-02-16T10:50:59.722Z,4.90
2023-02-16T10:53:45.080Z,4.90
2023-02-16T10:56:18.039Z,5.00
2023-02-16T10:58:45.583Z,5.00
2023-02-16T11:01:16.679Z,5.10
2023-02-16T11:03:50.332Z,5.10
2023-02-16T11:06:18.636Z,5.20
2023-02-16T11:08:49.252Z,5.20
2023-02-16T11:11:16.797Z,5.30
2023-02-16T11:13:45.110Z,5.40
2023-02-16T11:16:12.709Z,5.40
2023-02-16T11:18:46.303Z,5.50
2023-02-16T11:21:13.822Z,5.60
2023-02-16T11:23:44.059Z,5.70
2023-02-16T11:26:11.588Z,6.00
2023-02-16T11:28:39.125Z,6.10
2023-02-16T11:31:21.238Z,6.10
2023-02-16T11:34:00.467Z,6.10
2023-02-16T11:36:31.510Z,6.50
2023-02-16T11:39:05.811Z,6.50
2023-02-16T11:41:34.105Z,6.60
2023-02-16T11:44:02.431Z,6.60
2023-02-16T11:46:29.988Z,6.60
2023-02-16T11:48:57.488Z,6.70
2023-02-16T11:51:32.023Z,6.90
2023-02-16T11:54:00.293Z,7.00
2023-02-16T11:56:30.606Z,6.90
2023-02-16T11:59:13.816Z,7.10
2023-02-16T12:01:49.827Z,7.10
2023-02-16T12:04:41.925Z,7.20
2023-02-16T12:07:17.930Z,7.20
2023-02-16T12:09:48.509Z,7.20
2023-02-16T12:12:25.555Z,7.30
2023-02-16T12:15:20.608Z,7.30
2023-02-16T12:17:53.616Z,7.30
2023-02-16T12:20:45.782Z,7.40
2023-02-16T12:23:34.372Z,7.40
2023-02-16T12:26:36.380Z,7.40
2023-02-16T12:29:06.875Z,7.40
2023-02-16T12:31:35.221Z,7.50
2023-02-16T12:34:20.567Z,7.50
2023-02-16T12:36:51.003Z,7.60
2023-02-16T12:39:40.452Z,7.60
2023-02-16T12:42:19.784Z,7.70
2023-02-16T12:44:50.582Z,7.70
2023-02-16T12:47:31.158Z,7.80
2023-02-16T12:50:04.990Z,7.80
2023-02-16T12:52:41.459Z,7.80
2023-02-16T12:55:36.200Z,7.90
2023-02-16T12:58:24.843Z,7.90
2023-02-16T13:00:52.459Z,8.00
2023-02-16T13:03:38.992Z,8.30
2023-02-16T13:06:24.925Z,8.30
2023-02-16T13:09:11.282Z,8.60
2023-02-16T13:11:41.850Z,8.60
2023-02-16T13:14:11.974Z,8.60
2023-02-16T13:16:52.134Z,8.70
2023-02-16T13:19:19.587Z,8.70
2023-02-16T13:21:51.778Z,8.80
2023-02-16T13:24:33.207Z,8.80
2023-02-16T13:27:18.815Z,8.80
2023-02-16T13:30:04.843Z,8.90
2023-02-16T13:32:37.727Z,8.90
2023-02-16T13:35:17.509Z,8.90
2023-02-16T13:38:15.213Z,8.80
2023-02-16T13:41:04.676Z,8.80
2023-02-16T13:44:03.455Z,8.70
2023-02-16T13:46:33.727Z,8.70
2023-02-16T13:49:01.271Z,8.60
2023-02-16T13:51:29.554Z,8.90
2023-02-16T13:54:03.563Z,8.80
2023-02-16T13:56:31.091Z,8.80
2023-02-16T13:58:58.616Z,8.80
2023-02-16T14:01:31.879Z,8.90
2023-02-16T14:03:59.354Z,9.10
2023-02-16T14:06:29.471Z,9.20
2023-02-16T14:09:15.116Z,9.50
2023-02-16T14:11:54.272Z,9.50
2023-02-16T14:14:33.775Z,9.60
2023-02-16T14:17:19.881Z,9.70
2023-02-16T14:19:56.331Z,9.70
2023-02-16T14:22:23.837Z,9.70
2023-02-16T14:24:57.349Z,10.00
2023-02-16T14:27:43.020Z,10.10
2023-02-16T14:30:28.850Z,10.20
2023-02-16T14:33:17.185Z,10.20
2023-02-16T14:35:47.353Z,10.30
2023-02-16T14:38:29.726Z,10.30
2023-02-16T14:41:02.989Z,10.40
2023-02-16T14:43:42.055Z,10.40
2023-02-16T14:46:33.469Z,10.60
2023-02-16T14:49:24.926Z,10.70
2023-02-16T14:52:13.636Z,10.70
2023-02-16T14:54:41.270Z,10.70
2023-02-16T14:57:21.560Z,10.70
2023-02-16T14:59:51.872Z,10.70
2023-02-16T15:02:25.087Z,10.80
2023-02-16T15:04:52.630Z,11.10
2023-02-16T15:07:20.204Z,11.30
2023-02-16T15:09:48.506Z,11.30
2023-02-16T15:12:22.066Z,11.30
2023-02-16T15:14:52.584Z,11.30
2023-02-16T15:17:29.148Z,11.30
2023-02-16T15:19:56.695Z,11.50
2023-02-16T15:22:24.296Z,11.70
2023-02-16T15:25:00.841Z,11.90
2023-02-16T15:27:28.375Z,11.80
2023-02-16T15:30:05.340Z,12.00
2023-02-16T15:32:32.800Z,12.10
2023-02-16T15:35:00.324Z,12.00
2023-02-16T15:37:31.393Z,11.80
2023-02-16T15:40:23.097Z,11.80
2023-02-16T15:42:27.233Z,11.60
2023-02-16T15:44:54.814Z,11.60
2023-02-16T15:47:25.317Z,11.50
2023-02-16T15:49:52.867Z,11.50
2023-02-16T15:52:29.292Z,11.50
2023-02-16T15:54:56.888Z,11.40
2023-02-16T15:57:31.256Z,11.50
2023-02-16T15:59:58.854Z,11.50
2023-02-16T16:02:44.197Z,11.40
2023-02-16T16:05:30.768Z,11.30
2023-02-16T16:07:58.324Z,11.20
2023-02-16T16:10:28.296Z,11.30
2023-02-16T16:12:56.211Z,11.30
2023-02-16T16:15:23.783Z,11.10
2023-02-16T16:17:51.292Z,11.10
2023-02-16T16:20:30.971Z,11.00
2023-02-16T16:22:59.245Z,10.90
2023-02-16T16:25:44.895Z,10.80
2023-02-16T16:28:12.423Z,10.80
2023-02-16T16:30:42.766Z,10.80
2023-02-16T16:33:10.359Z,11.00
2023-02-16T16:35:43.605Z,11.00
2023-02-16T16:38:25.942Z,10.90
2023-02-16T16:40:56.650Z,10.90
2023-02-16T16:43:32.858Z,10.90
2023-02-16T16:46:18.181Z,10.80
2023-02-16T16:48:45.804Z,11.10
2023-02-16T16:51:14.070Z,11.00
2023-02-16T16:53:50.851Z,11.00
2023-02-16T16:56:19.144Z,10.90
2023-02-16T16:58:49.391Z,10.80
2023-02-16T17:01:16.965Z,10.80
2023-02-16T17:03:44.561Z,10.80
2023-02-16T17:06:12.044Z,10.80
2023-02-16T17:08:39.644Z,10.80
2023-02-16T17:11:07.162Z,10.80
2023-02-16T17:13:34.705Z,10.70
2023-02-16T17:16:07.964Z,10.90
2023-02-16T17:18:35.272Z,10.90
2023-02-16T17:21:02.825Z,10.80
2023-02-16T17:23:30.406Z,10.70
2023-02-16T17:25:57.971Z,10.60
2023-02-16T17:28:25.486Z,10.50
2023-02-16T17:30:53.077Z,10.60
2023-02-16T17:33:20.624Z,10.60
2023-02-16T17:35:48.158Z,10.50
2023-02-16T17:38:18.819Z,10.50
2023-02-16T17:40:49.343Z,10.40
2023-02-16T17:43:16.901Z,10.40
2023-02-16T17:45:44.509Z,10.40
2023-02-16T17:48:20.848Z,10.40
2023-02-16T17:50:48.361Z,10.40
2023-02-16T17:53:15.976Z,10.30
2023-02-16T17:55:43.513Z,10.30
2023-02-16T17:58:11.105Z,10.30
2023-02-16T18:00:38.659Z,10.50
2023-02-16T18:03:06.193Z,10.70
2023-02-16T18:05:33.748Z,10.60
2023-02-16T18:08:01.327Z,10.50
2023-02-16T18:10:37.455Z,10.40
2023-02-16T18:13:07.828Z,10.30
2023-02-16T18:15:36.148Z,10.40
2023-02-16T18:18:03.680Z,10.40
2023-02-16T18:20:31.265Z,10.30
2023-02-16T18:22:58.804Z,10.20
2023-02-16T18:25:26.328Z,10.20
2023-02-16T18:27:54.250Z,10.10
2023-02-16T18:30:21.823Z,10.00
2023-02-16T18:32:49.336Z,10.20
2023-02-16T18:35:17.688Z,10.20
2023-02-16T18:37:45.233Z,10.10
2023-02-16T18:40:12.810Z,10.10
2023-02-16T18:42:40.423Z,10.30
2023-02-16T18:45:07.970Z,10.30
2023-02-16T18:47:35.522Z,10.50
2023-02-16T18:50:03.140Z,10.40
2023-02-16T18:52:30.692Z,10.30
2023-02-16T18:54:58.216Z,10.20
2023-02-16T18:57:26.549Z,10.10
2023-02-16T18:59:54.085Z,10.00
2023-02-16T19:02:21.629Z,10.00
2023-02-16T19:04:49.192Z,10.00
2023-02-16T19:07:16.736Z,9.90
2023-02-16T19:09:44.263Z,9.90
2023-02-16T19:12:12.695Z,9.80
2023-02-16T19:14:40.136Z,9.80
2023-02-16T19:17:07.666Z,9.80
2023-02-16T19:19:36.044Z,10.00
2023-02-16T19:22:04.336Z,10.00
2023-02-16T19:24:31.892Z,10.00
2023-02-16T19:26:59.475Z,9.90
2023-02-16T19:29:27.003Z,9.90
2023-02-16T19:31:54.645Z,9.90
2023-02-16T19:34:22.926Z,9.90
2023-02-16T19:36:51.219Z,9.90
2023-02-16T19:39:18.753Z,9.90
2023-02-16T19:41:47.093Z,9.90
2023-02-16T19:44:14.628Z,9.90
2023-02-16T19:46:42.237Z,9.90
2023-02-16T19:49:09.763Z,9.90
2023-02-16T19:51:37.298Z,9.90
2023-02-16T19:54:04.841Z,10.00
2023-02-16T19:56:33.172Z,10.00
2023-02-16T19:59:00.712Z,9.90
2023-02-16T20:01:28.341Z,10.00
2023-02-16T20:03:56.672Z,10.00
2023-02-16T20:06:26.896Z,10.00
2023-02-16T20:08:54.441Z,10.00
2023-02-16T20:11:22.032Z,10.00
2023-02-16T20:13:49.573Z,10.00
2023-02-16T20:16:17.289Z,10.00
2023-02-16T20:18:44.706Z,10.20
2023-02-16T20:21:12.229Z,10.30
2023-02-16T20:23:39.768Z,10.30
2023-02-16T20:26:07.519Z,10.20
2023-02-16T20:28:34.920Z,10.20
2023-02-16T20:31:02.529Z,10.20
2023-02-16T20:33:30.032Z,10.20
2023-02-16T20:35:57.562Z,10.20
2023-02-16T20:38:25.090Z,10.20
2023-02-16T20:40:53.432Z,10.20
2023-02-16T20:43:21.057Z,10.10
2023-02-16T20:45:48.578Z,10.20
2023-02-16T20:48:16.426Z,10.40
2023-02-16T20:50:43.975Z,10.40
2023-02-16T20:53:11.515Z,10.40
2023-02-16T20:55:39.082Z,10.30
2023-02-16T20:58:06.672Z,10.30
2023-02-16T21:00:34.252Z,10.20
2023-02-16T21:03:01.791Z,10.20
2023-02-16T21:05:29.325Z,10.20
2023-02-16T21:07:56.860Z,10.20
2023-02-16T21:10:24.432Z,10.20
2023-02-16T21:12:51.957Z,10.20
2023-02-16T21:15:19.492Z,10.20
2023-02-16T21:17:47.824Z,10.20
2023-02-16T21:20:15.377Z,10.20
2023-02-16T21:22:43.001Z,10.20
2023-02-16T21:25:11.329Z,10.20
2023-02-16T21:27:38.856Z,10.20
2023-02-16T21:30:06.581Z,10.20
2023-02-16T21:32:34.138Z,10.20
2023-02-16T21:35:01.665Z,10.20
2023-02-16T21:37:29.191Z,10.20
2023-02-16T21:40:14.861Z,10.20
2023-02-16T21:42:43.189Z,10.20
2023-02-16T21:45:13.565Z,10.20
2023-02-16T21:47:59.390Z,10.20
2023-02-16T21:50:26.930Z,10.20
2023-02-16T21:52:54.468Z,10.20
2023-02-16T21:55:40.651Z,10.20
2023-02-16T21:58:09.253Z,10.10
2023-02-16T22:00:36.786Z,10.10
2023-02-16T22:03:04.359Z,10.10
2023-02-16T22:05:32.663Z,10.10
2023-02-16T22:08:00.245Z,10.10
2023-02-16T22:10:27.810Z,10.10
2023-02-16T22:12:55.331Z,10.10
2023-02-16T22:15:22.862Z,10.10
2023-02-16T22:17:50.442Z,10.10
2023-02-16T22:20:18.737Z,10.10
2023-02-16T22:22:46.280Z,10.10
2023-02-16T22:25:13.847Z,10.10
2023-02-16T22:27:41.405Z,10.20
2023-02-16T22:30:09.774Z,10.10
2023-02-16T22:32:37.317Z,10.10
2023-02-16T22:35:05.622Z,10.30
2023-02-16T22:37:33.162Z,10.30
2023-02-16T22:40:00.732Z,10.40
2023-02-16T22:42:28.259Z,10.30
2023-02-16T22:44:55.782Z,10.30
2023-02-16T22:47:23.377Z,10.30
2023-02-16T22:49:51.609Z,10.50
2023-02-16T22:52:19.127Z,10.50
2023-02-16T22:54:47.487Z,10.40
2023-02-16T22:57:15.032Z,10.40
2023-02-16T22:59:42.566Z,10.40
2023-02-16T23:02:10.180Z,10.60
2023-02-16T23:04:37.704Z,10.80
2023-02-16T23:07:05.233Z,10.80
2023-02-16T23:09:32.792Z,10.70
2023-02-16T23:12:00.352Z,10.60
2023-02-16T23:14:29.246Z,10.50
2023-02-16T23:16:56.354Z,10.50
2023-02-16T23:19:24.586Z,10.40
2023-02-16T23:21:52.865Z,10.40
2023-02-16T23:24:21.152Z,10.40
2023-02-16T23:26:48.690Z,10.40
2023-02-16T23:29:16.232Z,10.40
2023-02-16T23:31:43.832Z,10.40
2023-02-16T23:34:11.329Z,10.40
2023-02-16T23:36:39.629Z,10.30
2023-02-16T23:39:07.202Z,10.30
2023-02-16T23:41:34.734Z,10.40
2023-02-16T23:44:02.266Z,10.30
2023-02-16T23:46:30.278Z,10.30
2023-02-16T23:48:57.707Z,10.30
2023-02-16T23:51:26.001Z,10.30
2023-02-16T23:53:53.586Z,10.30
2023-02-16T23:56:21.133Z,10.30
2023-02-16T23:58:48.663Z,10.30
